Terminal Aerodrome Forecast
Issued by NWS Twin Cities, MN

Home | Current Version | Previous Version | Text Only | Print | Product List | Glossary Off
Versions: 1 2 3 4 5 6 7 8 9 10 11 12 13 14 15 16 17 18 19

475
FTUS43 KMPX 231120
TAFSTC
TAF
KSTC 231120Z 2312/2412 14013KT P6SM SCT030 OVC050
     FM231600 15014G22KT P6SM OVC025
     FM232000 14009KT 4SM -RA BR OVC015
     FM240000 12006KT 2SM -RA BR OVC008
     FM240300 VRB03KT 2SM -RA BR OVC005
     FM240600 02005KT 2SM -RA BR OVC005=

USA.gov is the U.S. government's official web portal to all federal, state and local government web resources and services.